Terminal Aerodrome Forecast
Issued by NWS Spokane, WA

Home | Current Version | Previous Version | Text Only | Print | Product List | Glossary On
Versions: 1 2 3 4 5 6 7 8 9 10 11 12 13 14 15 16 17 18 19 20 21 22 23
000
FTUS46 KOTX 231130
TAFEAT
TAF
KEAT 231130Z 2312/2412 29004KT P6SM VCSH FEW080 SCT120
     FM231800 29008KT P6SM -TSRA SCT050 BKN070CB BKN100
     FM232300 29016G28KT P6SM -TSRA SCT040 BKN060CB OVC080
     FM240300 30013G26KT P6SM VCSH SCT040 BKN060 OVC100
     FM240600 30011KT P6SM SCT060 BKN100=

USA.gov is the U.S. government's official web portal to all federal, state and local government web resources and services.